createdAt,value
2022-12-07T00:01:27.604Z,94.70
2022-12-07T00:03:58.103Z,94.69
2022-12-07T00:06:24.449Z,94.66
2022-12-07T00:08:50.777Z,94.91
2022-12-07T00:11:22.077Z,95.11
2022-12-07T00:13:53.515Z,95.16
2022-12-07T00:16:21.484Z,94.97
2022-12-07T00:18:47.943Z,95.57
2022-12-07T00:21:23.632Z,95.29
2022-12-07T00:23:51.728Z,95.11
2022-12-07T00:26:20.147Z,94.97
2022-12-07T00:28:51.902Z,95.56
2022-12-07T00:31:20.214Z,95.38
2022-12-07T00:33:47.378Z,94.98
2022-12-07T00:36:16.656Z,95.33
2022-12-07T00:38:43.464Z,95.12
2022-12-07T00:41:21.028Z,95.35
2022-12-07T00:43:48.793Z,95.46
2022-12-07T00:46:16.702Z,95.33
2022-12-07T00:48:43.840Z,95.56
2022-12-07T00:51:12.973Z,95.70
2022-12-07T00:53:41.884Z,94.93
2022-12-07T00:56:10.954Z,95.06
2022-12-07T00:58:37.444Z,95.09
2022-12-07T01:01:05.791Z,95.39
2022-12-07T01:03:32.635Z,95.26
2022-12-07T01:05:59.175Z,95.81
2022-12-07T01:08:26.895Z,95.64
2022-12-07T01:11:01.390Z,95.54
2022-12-07T01:13:29.175Z,95.51
2022-12-07T01:16:00.576Z,95.21
2022-12-07T01:18:28.965Z,95.89
2022-12-07T01:21:03.653Z,95.84
2022-12-07T01:23:31.324Z,95.85
2022-12-07T01:25:59.670Z,96.13
2022-12-07T01:28:27.486Z,95.68
2022-12-07T01:31:05.860Z,95.79
2022-12-07T01:33:37.984Z,95.92
2022-12-07T01:36:07.468Z,96.09
2022-12-07T01:38:34.522Z,95.27
2022-12-07T01:41:02.692Z,95.71
2022-12-07T01:43:31.394Z,95.17
2022-12-07T01:45:58.067Z,95.22
2022-12-07T01:48:44.770Z,95.24
2022-12-07T01:51:14.463Z,95.18
2022-12-07T01:53:46.358Z,95.16
2022-12-07T01:56:19.870Z,95.39
2022-12-07T01:58:46.375Z,95.32
2022-12-07T02:01:12.819Z,94.97
2022-12-07T02:03:42.520Z,95.60
2022-12-07T02:06:11.244Z,94.92
2022-12-07T02:08:38.008Z,95.24
2022-12-07T02:11:07.178Z,95.01
2022-12-07T02:13:36.338Z,95.36
2022-12-07T02:16:27.707Z,95.16
2022-12-07T02:19:22.763Z,95.39
2022-12-07T02:22:15.695Z,95.55
2022-12-07T02:24:56.382Z,95.48
2022-12-07T02:27:51.235Z,95.73
2022-12-07T02:30:23.044Z,95.55
2022-12-07T02:32:58.861Z,95.46
2022-12-07T02:35:29.753Z,95.82
2022-12-07T02:38:07.511Z,94.89
2022-12-07T02:40:48.878Z,95.36
2022-12-07T02:43:20.918Z,95.47
2022-12-07T02:45:49.395Z,95.66
2022-12-07T02:48:18.116Z,95.19
2022-12-07T02:50:52.878Z,94.88
2022-12-07T02:53:36.731Z,95.08
2022-12-07T02:56:37.828Z,95.23
2022-12-07T02:59:48.707Z,94.77
2022-12-07T03:02:30.198Z,94.93
2022-12-07T03:05:21.122Z,94.76
2022-12-07T03:08:16.458Z,95.27
2022-12-07T03:10:56.238Z,95.01
2022-12-07T03:14:00.861Z,95.34
2022-12-07T03:16:36.366Z,95.18
2022-12-07T03:19:14.065Z,95.25
2022-12-07T03:21:53.283Z,95.18
2022-12-07T03:24:22.792Z,95.45
2022-12-07T03:26:53.739Z,95.37
2022-12-07T03:29:31.330Z,95.56
2022-12-07T03:32:15.911Z,95.05
2022-12-07T03:35:01.532Z,95.20
2022-12-07T03:37:35.325Z,95.23
2022-12-07T03:40:15.863Z,95.15
2022-12-07T03:42:43.162Z,94.69
2022-12-07T03:45:10.212Z,95.01
2022-12-07T03:47:42.685Z,94.64
2022-12-07T03:50:20.062Z,94.40
2022-12-07T03:52:56.741Z,94.90
2022-12-07T03:55:32.081Z,94.98
2022-12-07T03:58:04.806Z,94.63
2022-12-07T04:00:31.761Z,94.92
2022-12-07T04:02:58.937Z,95.24
2022-12-07T04:05:25.854Z,94.68
2022-12-07T04:07:52.322Z,94.53
2022-12-07T04:10:19.073Z,94.42
2022-12-07T04:12:45.500Z,94.94
2022-12-07T04:15:11.951Z,95.14
2022-12-07T04:17:38.627Z,95.14
2022-12-07T04:20:06.402Z,94.88
2022-12-07T04:22:32.912Z,94.99
2022-12-07T04:24:59.330Z,94.68
2022-12-07T04:27:25.675Z,94.97
2022-12-07T04:29:52.027Z,95.14
2022-12-07T04:32:18.359Z,95.41
2022-12-07T04:34:44.724Z,95.00
2022-12-07T04:37:11.162Z,94.97
2022-12-07T04:39:37.858Z,94.51
2022-12-07T04:42:04.782Z,94.95
2022-12-07T04:44:31.396Z,95.13
2022-12-07T04:46:58.048Z,94.84
2022-12-07T04:49:25.586Z,94.87
2022-12-07T04:51:52.594Z,95.01
2022-12-07T04:54:19.020Z,95.11
2022-12-07T04:56:45.877Z,95.38
2022-12-07T04:59:13.342Z,94.99
2022-12-07T05:01:40.147Z,95.06
2022-12-07T05:04:07.212Z,94.99
2022-12-07T05:06:33.625Z,95.32
2022-12-07T05:09:00.043Z,95.15
2022-12-07T05:11:41.584Z,95.22
2022-12-07T05:14:10.329Z,95.31
2022-12-07T05:16:37.131Z,95.21
2022-12-07T05:19:03.963Z,94.79
2022-12-07T05:21:30.373Z,94.64
2022-12-07T05:23:56.921Z,94.43
2022-12-07T05:26:23.329Z,94.18
2022-12-07T05:28:54.321Z,94.46
2022-12-07T05:31:21.239Z,94.22
2022-12-07T05:33:47.845Z,94.40
2022-12-07T05:36:14.495Z,94.51
2022-12-07T05:38:41.027Z,94.50
2022-12-07T05:41:08.881Z,94.27
2022-12-07T05:43:35.237Z,94.24
2022-12-07T05:46:01.645Z,94.48
2022-12-07T05:48:28.087Z,94.17
2022-12-07T05:50:54.533Z,94.26
2022-12-07T05:53:23.179Z,94.59
2022-12-07T05:55:50.255Z,94.28
2022-12-07T05:58:35.390Z,94.55
2022-12-07T06:01:01.763Z,94.20
2022-12-07T06:03:28.193Z,94.40
2022-12-07T06:05:54.976Z,94.38
2022-12-07T06:08:21.626Z,94.43
2022-12-07T06:11:09.298Z,94.52
2022-12-07T06:13:35.663Z,94.38
2022-12-07T06:16:02.087Z,94.26
2022-12-07T06:18:28.484Z,94.19
2022-12-07T06:20:54.878Z,94.29
2022-12-07T06:23:21.320Z,94.44
2022-12-07T06:25:47.646Z,94.68
2022-12-07T06:28:13.970Z,94.29
2022-12-07T06:30:40.301Z,94.38
2022-12-07T06:33:07.270Z,94.80
2022-12-07T06:35:34.573Z,94.55
2022-12-07T06:38:00.906Z,94.74
2022-12-07T06:40:27.300Z,94.56
2022-12-07T06:42:53.660Z,94.74
2022-12-07T06:45:20.414Z,94.83
2022-12-07T06:47:47.405Z,94.86
2022-12-07T06:50:14.155Z,94.66
2022-12-07T06:52:40.497Z,95.08
2022-12-07T06:55:07.254Z,94.99
2022-12-07T06:57:33.580Z,94.95
2022-12-07T07:00:00.313Z,94.67
2022-12-07T07:02:27.208Z,94.52
2022-12-07T07:04:53.604Z,94.43
2022-12-07T07:07:19.979Z,94.99
2022-12-07T07:09:46.362Z,94.19
2022-12-07T07:12:12.669Z,94.38
2022-12-07T07:14:39.082Z,94.71
2022-12-07T07:17:05.541Z,94.56
2022-12-07T07:19:31.950Z,94.57
2022-12-07T07:21:58.249Z,94.30
2022-12-07T07:24:24.570Z,94.60
2022-12-07T07:26:50.955Z,94.59
2022-12-07T07:29:17.335Z,94.56
2022-12-07T07:31:43.805Z,94.60
2022-12-07T07:34:10.158Z,94.68
2022-12-07T07:36:36.545Z,94.74
2022-12-07T07:39:03.245Z,94.50
2022-12-07T07:41:29.632Z,94.82
2022-12-07T07:43:56.004Z,94.73
2022-12-07T07:46:22.427Z,94.44
2022-12-07T07:48:48.838Z,94.59
2022-12-07T07:51:15.370Z,94.55
2022-12-07T07:53:41.817Z,95.00
2022-12-07T07:56:08.298Z,94.67
2022-12-07T07:58:34.694Z,94.49
2022-12-07T08:01:06.316Z,94.92
2022-12-07T08:03:33.038Z,94.98
2022-12-07T08:05:59.519Z,95.11
2022-12-07T08:08:25.949Z,94.86
2022-12-07T08:10:52.343Z,94.93
2022-12-07T08:13:18.810Z,94.95
2022-12-07T08:15:47.367Z,94.93
2022-12-07T08:18:15.499Z,94.38
2022-12-07T08:20:42.753Z,94.73
2022-12-07T08:23:10.137Z,94.88
2022-12-07T08:25:36.763Z,94.98
2022-12-07T08:28:03.673Z,95.27
2022-12-07T08:30:30.946Z,95.47
2022-12-07T08:32:58.016Z,95.21
2022-12-07T08:35:25.006Z,95.53
2022-12-07T08:37:51.404Z,95.25
2022-12-07T08:40:19.740Z,95.06
2022-12-07T08:42:50.837Z,95.67
2022-12-07T08:45:24.995Z,94.82
2022-12-07T08:48:03.653Z,94.92
2022-12-07T08:50:30.438Z,95.30
2022-12-07T08:52:59.479Z,94.68
2022-12-07T08:55:26.733Z,94.86
2022-12-07T08:57:53.143Z,94.46
2022-12-07T09:00:19.756Z,94.58
2022-12-07T09:02:47.360Z,94.39
2022-12-07T09:05:16.889Z,94.34
2022-12-07T09:07:47.240Z,94.18
2022-12-07T09:10:13.709Z,94.28
2022-12-07T09:12:40.231Z,93.78
2022-12-07T09:15:07.085Z,94.10
2022-12-07T09:17:34.985Z,93.87
2022-12-07T09:20:02.423Z,93.80
2022-12-07T09:22:32.331Z,94.27
2022-12-07T09:24:59.745Z,93.63
2022-12-07T09:27:27.058Z,94.43
2022-12-07T09:29:53.796Z,94.22
2022-12-07T09:32:20.445Z,94.15
2022-12-07T09:34:46.945Z,93.84
2022-12-07T09:37:13.401Z,93.28
2022-12-07T09:39:44.632Z,92.91
2022-12-07T09:42:25.775Z,92.86
2022-12-07T09:44:52.194Z,93.11
2022-12-07T09:47:18.624Z,93.31
2022-12-07T09:49:45.032Z,92.84
2022-12-07T09:52:27.716Z,92.61
2022-12-07T09:54:54.297Z,92.10
2022-12-07T09:57:38.787Z,91.38
2022-12-07T10:00:12.587Z,91.15
2022-12-07T10:02:43.830Z,91.60
2022-12-07T10:05:23.505Z,91.39
2022-12-07T10:07:51.067Z,91.10
2022-12-07T10:10:32.687Z,91.04
2022-12-07T10:13:03.996Z,90.98
2022-12-07T10:15:56.258Z,90.52
2022-12-07T10:18:38.075Z,90.55
2022-12-07T10:21:14.383Z,90.81
2022-12-07T10:24:00.374Z,90.29
2022-12-07T10:26:35.809Z,90.06
2022-12-07T10:29:15.253Z,90.04
2022-12-07T10:31:42.880Z,89.75
2022-12-07T10:34:25.516Z,89.22
2022-12-07T10:36:54.115Z,88.80
2022-12-07T10:39:23.038Z,88.88
2022-12-07T10:42:00.197Z,89.39
2022-12-07T10:44:30.699Z,89.09
2022-12-07T10:47:11.449Z,89.01
2022-12-07T10:50:00.932Z,88.89
2022-12-07T10:52:39.866Z,88.41
2022-12-07T10:55:21.123Z,87.71
2022-12-07T10:58:05.204Z,87.00
2022-12-07T11:01:01.004Z,87.04
2022-12-07T11:03:54.698Z,87.29
2022-12-07T11:06:36.360Z,87.23
2022-12-07T11:10:07.442Z,86.97
2022-12-07T11:12:44.674Z,86.25
2022-12-07T11:15:23.222Z,86.05
2022-12-07T11:17:53.152Z,85.53
2022-12-07T11:20:50.841Z,85.72
2022-12-07T11:23:49.731Z,85.60
2022-12-07T11:26:26.391Z,85.53
2022-12-07T11:29:24.031Z,85.76
2022-12-07T11:32:13.487Z,85.95
2022-12-07T11:34:48.675Z,85.63
2022-12-07T11:37:19.746Z,86.10
2022-12-07T11:39:51.162Z,86.41
2022-12-07T11:42:23.679Z,86.56
2022-12-07T11:45:17.207Z,86.18
2022-12-07T11:47:48.546Z,85.54
2022-12-07T11:50:27.054Z,84.97
2022-12-07T11:53:01.118Z,84.39
2022-12-07T11:55:42.203Z,83.85
2022-12-07T11:58:35.000Z,83.49
2022-12-07T12:01:44.414Z,83.06
2022-12-07T12:04:10.730Z,82.86
2022-12-07T12:06:37.763Z,83.07
2022-12-07T12:09:41.943Z,82.98
2022-12-07T12:15:37.005Z,81.47
2022-12-07T12:18:43.355Z,80.69
2022-12-07T12:21:16.677Z,80.21
2022-12-07T12:23:49.453Z,79.44
2022-12-07T12:26:28.837Z,79.45
2022-12-07T12:28:56.964Z,79.36
2022-12-07T12:31:23.363Z,78.80
2022-12-07T12:33:52.505Z,78.99
2022-12-07T12:36:24.931Z,78.67
2022-12-07T12:39:00.169Z,78.32
2022-12-07T12:41:49.931Z,78.46
2022-12-07T12:44:16.263Z,77.86
2022-12-07T12:46:54.862Z,77.48
2022-12-07T12:49:21.170Z,77.66
2022-12-07T12:51:53.546Z,78.15
2022-12-07T12:54:31.901Z,78.03
2022-12-07T12:57:32.952Z,76.90
2022-12-07T13:00:04.610Z,76.97
2022-12-07T13:02:33.051Z,77.05
2022-12-07T13:05:07.122Z,77.42
2022-12-07T13:07:50.883Z,77.41
2022-12-07T13:10:33.530Z,77.94
2022-12-07T13:13:26.153Z,78.89
2022-12-07T13:16:15.246Z,79.14
2022-12-07T13:18:42.655Z,79.49
2022-12-07T13:21:08.983Z,79.70
2022-12-07T13:23:47.503Z,80.00
2022-12-07T13:26:38.036Z,80.72
2022-12-07T13:29:10.569Z,80.89
2022-12-07T13:31:57.954Z,80.80
2022-12-07T13:34:37.942Z,81.23
2022-12-07T13:37:22.508Z,81.42
2022-12-07T13:39:52.147Z,81.75
2022-12-07T13:42:36.087Z,81.67
2022-12-07T13:45:43.764Z,81.38
2022-12-07T13:48:17.531Z,81.77
2022-12-07T13:50:43.987Z,82.12
2022-12-07T13:53:14.999Z,81.93
2022-12-07T13:55:50.867Z,82.52
2022-12-07T13:58:20.840Z,82.80
2022-12-07T14:00:47.271Z,83.01
2022-12-07T14:03:13.561Z,82.63
2022-12-07T14:05:44.339Z,82.95
2022-12-07T14:08:11.179Z,83.44
2022-12-07T14:10:39.711Z,82.92
2022-12-07T14:13:27.795Z,83.42
2022-12-07T14:15:54.523Z,83.69
2022-12-07T14:18:29.763Z,83.56
2022-12-07T14:21:14.943Z,83.21
2022-12-07T14:23:41.648Z,83.19
2022-12-07T14:26:16.788Z,82.92
2022-12-07T14:28:44.481Z,83.27
2022-12-07T14:31:24.965Z,83.17
2022-12-07T14:34:00.206Z,83.32
2022-12-07T14:36:26.574Z,83.47
2022-12-07T14:38:55.189Z,83.40
2022-12-07T14:41:42.166Z,83.57
2022-12-07T14:44:23.891Z,83.66
2022-12-07T14:49:39.244Z,83.82
2022-12-07T14:54:55.579Z,83.88
2022-12-07T14:57:21.919Z,83.84
2022-12-07T14:59:48.288Z,83.82
2022-12-07T15:02:17.123Z,83.66
2022-12-07T15:04:43.609Z,83.77
2022-12-07T15:07:18.439Z,83.83
2022-12-07T15:09:44.863Z,83.98
2022-12-07T15:12:11.299Z,84.16
2022-12-07T15:14:37.712Z,83.50
2022-12-07T15:17:09.160Z,84.12
2022-12-07T15:19:36.326Z,83.84
2022-12-07T15:22:02.699Z,84.42
2022-12-07T15:24:29.132Z,85.04
2022-12-07T15:26:55.608Z,84.92
2022-12-07T15:29:23.587Z,85.68
2022-12-07T15:31:56.545Z,85.59
2022-12-07T15:34:31.893Z,85.46
2022-12-07T15:37:02.757Z,85.71
2022-12-07T15:39:29.212Z,86.21
2022-12-07T15:41:55.543Z,85.99
2022-12-07T15:44:40.167Z,86.35
2022-12-07T15:47:06.752Z,86.76
2022-12-07T15:49:33.643Z,86.35
2022-12-07T15:52:00.100Z,86.63
2022-12-07T15:54:28.722Z,86.64
2022-12-07T15:56:55.751Z,86.53
2022-12-07T15:59:22.619Z,86.62
2022-12-07T16:01:49.036Z,87.25
2022-12-07T16:04:15.397Z,86.93
2022-12-07T16:06:41.804Z,87.29
2022-12-07T16:09:08.381Z,87.27
2022-12-07T16:11:35.048Z,87.06
2022-12-07T16:14:01.487Z,87.09
2022-12-07T16:16:28.890Z,86.87
2022-12-07T16:18:55.691Z,87.42
2022-12-07T16:21:25.327Z,86.98
2022-12-07T16:23:52.594Z,86.81
2022-12-07T16:26:22.240Z,87.64
2022-12-07T16:28:53.197Z,87.44
2022-12-07T16:31:21.897Z,86.93
2022-12-07T16:33:49.990Z,86.94
2022-12-07T16:36:28.898Z,87.53
2022-12-07T16:39:04.336Z,87.72
2022-12-07T16:41:31.325Z,87.57
2022-12-07T16:43:57.748Z,87.53
2022-12-07T16:46:24.347Z,87.87
2022-12-07T16:48:50.752Z,87.23
2022-12-07T16:51:17.146Z,87.63
2022-12-07T16:53:43.820Z,87.85
2022-12-07T16:56:15.342Z,87.52
2022-12-07T16:58:43.479Z,87.93
2022-12-07T17:01:14.932Z,87.61
2022-12-07T17:03:41.429Z,87.58
2022-12-07T17:06:15.298Z,87.69
2022-12-07T17:08:42.235Z,87.75
2022-12-07T17:11:13.436Z,87.53
2022-12-07T17:13:59.377Z,87.73
2022-12-07T17:16:26.192Z,88.06
2022-12-07T17:18:52.963Z,87.30
2022-12-07T17:21:19.667Z,88.07
2022-12-07T17:23:46.916Z,87.89
2022-12-07T17:26:16.607Z,88.49
2022-12-07T17:28:43.336Z,88.67
2022-12-07T17:31:12.856Z,88.03
2022-12-07T17:33:39.335Z,88.42
2022-12-07T17:36:11.913Z,88.26
2022-12-07T17:38:38.421Z,88.23
2022-12-07T17:41:47.735Z,89.00
2022-12-07T17:44:19.204Z,88.40
2022-12-07T17:46:48.122Z,88.72
2022-12-07T17:49:14.693Z,88.88
2022-12-07T17:51:59.904Z,89.17
2022-12-07T17:54:26.508Z,88.83
2022-12-07T17:56:52.956Z,88.77
2022-12-07T17:59:19.456Z,89.24
2022-12-07T18:01:46.195Z,88.89
2022-12-07T18:04:12.880Z,89.19
2022-12-07T18:06:39.694Z,88.54
2022-12-07T18:09:07.459Z,88.58
2022-12-07T18:11:34.231Z,88.80
2022-12-07T18:14:00.839Z,88.88
2022-12-07T18:16:29.572Z,88.17
2022-12-07T18:18:59.766Z,88.87
2022-12-07T18:21:27.761Z,88.95
2022-12-07T18:23:56.971Z,89.41
2022-12-07T18:26:25.695Z,89.42
2022-12-07T18:28:52.783Z,89.37
2022-12-07T18:31:20.402Z,89.52
2022-12-07T18:33:48.341Z,89.69
2022-12-07T18:36:16.714Z,89.51
2022-12-07T18:38:44.486Z,89.39
2022-12-07T18:41:13.233Z,90.22
2022-12-07T18:43:39.702Z,90.01
2022-12-07T18:46:17.187Z,90.41
2022-12-07T18:48:44.266Z,89.87
2022-12-07T18:51:13.135Z,90.13
2022-12-07T18:53:39.706Z,90.18
2022-12-07T18:56:26.814Z,90.11
2022-12-07T18:59:14.346Z,90.25
2022-12-07T19:01:42.578Z,90.02
2022-12-07T19:04:10.699Z,89.95
2022-12-07T19:06:37.411Z,90.56
2022-12-07T19:09:04.577Z,90.70
2022-12-07T19:11:51.948Z,90.38
2022-12-07T19:14:33.027Z,90.58
2022-12-07T19:17:02.730Z,90.68
2022-12-07T19:19:38.046Z,90.43
2022-12-07T19:22:05.774Z,90.29
2022-12-07T19:24:32.382Z,90.86
2022-12-07T19:26:59.745Z,90.47
2022-12-07T19:29:28.723Z,90.51
2022-12-07T19:31:55.264Z,90.37
2022-12-07T19:34:21.760Z,90.88
2022-12-07T19:36:48.248Z,90.49
2022-12-07T19:39:15.837Z,90.90
2022-12-07T19:41:44.465Z,89.70
2022-12-07T19:44:23.355Z,90.27
2022-12-07T19:46:51.066Z,90.87
2022-12-07T19:49:19.440Z,90.25
2022-12-07T19:51:51.351Z,90.88
2022-12-07T19:54:20.222Z,90.93
2022-12-07T19:56:47.598Z,90.59
2022-12-07T19:59:15.014Z,90.53
2022-12-07T20:01:42.477Z,91.18
2022-12-07T20:04:12.866Z,90.46
2022-12-07T20:06:39.680Z,90.57
2022-12-07T20:09:06.193Z,90.82
2022-12-07T20:11:51.257Z,90.71
2022-12-07T20:14:17.691Z,90.72
2022-12-07T20:16:46.695Z,90.84
2022-12-07T20:19:14.382Z,90.91
2022-12-07T20:21:42.206Z,90.70
2022-12-07T20:24:12.048Z,90.73
2022-12-07T20:26:38.627Z,90.42
2022-12-07T20:29:14.766Z,90.70
2022-12-07T20:31:45.053Z,90.98
2022-12-07T20:34:11.606Z,90.86
2022-12-07T20:36:38.303Z,91.24
2022-12-07T20:39:05.731Z,90.94
2022-12-07T20:41:51.658Z,90.73
2022-12-07T20:44:18.874Z,90.67
2022-12-07T20:46:46.493Z,91.13
2022-12-07T20:49:15.243Z,91.17
2022-12-07T20:51:42.852Z,90.99
2022-12-07T20:54:09.613Z,91.41
2022-12-07T20:56:37.095Z,91.42
2022-12-07T20:59:09.602Z,91.28
2022-12-07T21:01:37.039Z,91.48
2022-12-07T21:04:03.667Z,91.32
2022-12-07T21:06:30.131Z,90.80
2022-12-07T21:08:58.684Z,90.82
2022-12-07T21:11:27.416Z,91.28
2022-12-07T21:13:53.966Z,91.70
2022-12-07T21:16:26.962Z,91.44
2022-12-07T21:18:59.992Z,91.32
2022-12-07T21:21:26.392Z,91.53
2022-12-07T21:24:01.570Z,91.41
2022-12-07T21:26:29.138Z,91.39
2022-12-07T21:28:56.937Z,91.50
2022-12-07T21:31:23.356Z,91.74
2022-12-07T21:33:50.325Z,91.46
2022-12-07T21:36:19.458Z,92.17
2022-12-07T21:38:45.934Z,91.48
2022-12-07T21:41:21.680Z,91.70
2022-12-07T21:43:48.415Z,91.95
2022-12-07T21:46:16.078Z,92.23
2022-12-07T21:48:43.370Z,91.81
2022-12-07T21:51:12.416Z,92.04
2022-12-07T21:53:40.638Z,92.11
2022-12-07T21:56:23.467Z,92.39
2022-12-07T21:58:51.393Z,92.93
2022-12-07T22:01:20.061Z,92.95
2022-12-07T22:03:47.242Z,92.65
2022-12-07T22:06:19.295Z,92.73
2022-12-07T22:08:45.831Z,92.69
2022-12-07T22:11:13.489Z,93.20
2022-12-07T22:14:03.141Z,93.02
2022-12-07T22:16:33.055Z,93.20
2022-12-07T22:18:59.402Z,93.07
2022-12-07T22:21:26.873Z,93.26
2022-12-07T22:23:53.730Z,93.14
2022-12-07T22:26:24.327Z,93.28
2022-12-07T22:28:51.184Z,93.47
2022-12-07T22:31:19.935Z,93.44
2022-12-07T22:33:46.812Z,93.42
2022-12-07T22:36:13.624Z,93.14
2022-12-07T22:38:41.132Z,93.68
2022-12-07T22:41:19.674Z,93.28
2022-12-07T22:43:46.077Z,93.16
2022-12-07T22:46:12.461Z,93.33
2022-12-07T22:48:38.835Z,93.36
2022-12-07T22:51:05.154Z,93.33
2022-12-07T22:53:31.671Z,93.64
2022-12-07T22:55:58.022Z,93.21
2022-12-07T22:58:24.451Z,93.33
2022-12-07T23:00:50.840Z,93.09
2022-12-07T23:03:17.222Z,93.77
2022-12-07T23:05:46.099Z,93.12
2022-12-07T23:08:12.997Z,93.31
2022-12-07T23:10:47.376Z,93.16
2022-12-07T23:13:35.084Z,93.50
2022-12-07T23:16:12.102Z,93.56
2022-12-07T23:18:40.634Z,93.93
2022-12-07T23:21:07.608Z,93.37
2022-12-07T23:23:34.765Z,93.09
2022-12-07T23:26:06.074Z,93.63
2022-12-07T23:28:32.735Z,93.50
2022-12-07T23:31:06.211Z,93.37
2022-12-07T23:33:33.367Z,93.95
2022-12-07T23:36:18.134Z,93.49
2022-12-07T23:38:46.263Z,93.82
2022-12-07T23:41:14.957Z,93.86
2022-12-07T23:43:42.142Z,93.54
2022-12-07T23:46:17.996Z,93.63
2022-12-07T23:48:45.127Z,93.85
2022-12-07T23:51:12.591Z,94.04
2022-12-07T23:53:42.174Z,94.15
2022-12-07T23:56:12.672Z,94.35
2022-12-07T23:58:39.236Z,94.03
